createdAt,value
2022-12-07T00:03:24.154Z,2.74
2022-12-07T00:07:36.577Z,2.73
2022-12-07T00:11:52.286Z,2.73
2022-12-07T00:16:19.805Z,2.64
2022-12-07T00:20:34.954Z,2.72
2022-12-07T00:24:47.253Z,2.62
2022-12-07T00:29:02.222Z,2.69
2022-12-07T00:33:14.523Z,2.52
2022-12-07T00:37:26.805Z,2.61
2022-12-07T00:41:39.199Z,2.69
2022-12-07T00:45:51.580Z,2.60
2022-12-07T00:50:04.323Z,2.66
2022-12-07T00:54:16.959Z,2.62
2022-12-07T00:58:29.221Z,2.52
2022-12-07T01:02:41.488Z,2.64
2022-12-07T01:06:55.195Z,2.64
2022-12-07T01:11:09.879Z,2.58
2022-12-07T01:15:32.152Z,2.56
2022-12-07T01:19:44.586Z,2.57
2022-12-07T01:24:09.243Z,2.68
2022-12-07T01:28:22.403Z,2.54
2022-12-07T01:32:35.683Z,2.61
2022-12-07T01:36:47.949Z,2.58
2022-12-07T01:41:01.371Z,2.75
2022-12-07T01:45:19.464Z,2.69
2022-12-07T01:49:42.498Z,2.68
2022-12-07T01:54:02.656Z,2.54
2022-12-07T01:58:16.848Z,2.54
2022-12-07T02:02:33.707Z,2.53
2022-12-07T02:06:46.680Z,2.57
2022-12-07T02:10:59.016Z,2.51
2022-12-07T02:15:11.403Z,2.50
2022-12-07T02:19:26.428Z,2.54
2022-12-07T02:24:15.098Z,2.62
2022-12-07T02:28:37.481Z,2.55
2022-12-07T02:32:59.605Z,2.48
2022-12-07T02:37:26.023Z,2.71
2022-12-07T02:41:46.115Z,2.54
2022-12-07T02:46:05.883Z,2.37
2022-12-07T02:50:21.532Z,2.46
2022-12-07T02:54:33.867Z,2.55
2022-12-07T02:59:15.302Z,2.51
2022-12-07T03:03:29.645Z,2.47
2022-12-07T03:07:44.985Z,2.57
2022-12-07T03:12:06.515Z,2.62
2022-12-07T03:16:22.050Z,2.49
2022-12-07T03:20:37.458Z,2.38
2022-12-07T03:24:58.974Z,2.53
2022-12-07T03:29:19.704Z,2.51
2022-12-07T03:33:38.660Z,2.52
2022-12-07T03:37:57.691Z,2.53
2022-12-07T03:42:12.183Z,2.50
2022-12-07T03:46:38.662Z,2.36
2022-12-07T03:50:57.495Z,2.46
2022-12-07T03:55:13.146Z,2.39
2022-12-07T03:59:26.378Z,2.45
2022-12-07T04:03:38.714Z,2.43
2022-12-07T04:07:51.143Z,2.50
2022-12-07T04:12:03.526Z,2.55
2022-12-07T04:16:15.849Z,2.37
2022-12-07T04:20:28.177Z,2.40
2022-12-07T04:24:40.750Z,2.65
2022-12-07T04:28:53.068Z,2.28
2022-12-07T04:33:05.352Z,2.40
2022-12-07T04:37:19.056Z,2.36
2022-12-07T04:41:32.687Z,2.41
2022-12-07T04:45:49.818Z,2.46
2022-12-07T04:50:02.567Z,2.56
2022-12-07T04:54:16.767Z,2.50
2022-12-07T04:58:29.087Z,2.52
2022-12-07T05:02:41.583Z,2.32
2022-12-07T05:06:53.860Z,2.27
2022-12-07T05:11:07.669Z,2.23
2022-12-07T05:15:19.991Z,2.38
2022-12-07T05:19:32.277Z,2.19
2022-12-07T05:23:44.628Z,2.10
2022-12-07T05:27:58.180Z,2.37
2022-12-07T05:32:10.543Z,2.15
2022-12-07T05:36:23.710Z,2.21
2022-12-07T05:40:36.023Z,2.22
2022-12-07T05:44:49.151Z,2.14
2022-12-07T05:49:01.753Z,2.23
2022-12-07T05:53:17.488Z,2.31
2022-12-07T05:57:33.714Z,2.27
2022-12-07T06:01:46.076Z,2.42
2022-12-07T06:06:07.901Z,2.13
2022-12-07T06:10:20.266Z,2.35
2022-12-07T06:14:33.026Z,2.29
2022-12-07T06:18:45.293Z,2.22
2022-12-07T06:22:57.631Z,2.03
2022-12-07T06:27:14.064Z,2.04
2022-12-07T06:31:32.442Z,2.21
2022-12-07T06:35:44.761Z,2.20
2022-12-07T06:39:57.088Z,2.12
2022-12-07T06:44:09.663Z,2.12
2022-12-07T06:48:23.139Z,2.08
2022-12-07T06:52:36.344Z,2.25
2022-12-07T06:56:48.599Z,2.11
2022-12-07T07:01:01.190Z,2.21
2022-12-07T07:05:13.582Z,2.14
2022-12-07T07:09:28.934Z,2.34
2022-12-07T07:13:41.654Z,2.31
2022-12-07T07:17:54.063Z,2.42
2022-12-07T07:22:06.552Z,2.46
2022-12-07T07:26:23.116Z,2.46
2022-12-07T07:30:46.272Z,2.53
2022-12-07T07:34:58.598Z,2.47
2022-12-07T07:39:11.987Z,2.50
2022-12-07T07:43:24.512Z,2.58
2022-12-07T07:47:37.101Z,2.57
2022-12-07T07:51:49.392Z,2.54
2022-12-07T07:56:02.282Z,2.56
2022-12-07T08:00:16.278Z,2.78
2022-12-07T08:04:28.658Z,2.68
2022-12-07T08:08:41.118Z,2.78
2022-12-07T08:13:11.922Z,2.96
2022-12-07T08:17:24.397Z,2.81
2022-12-07T08:21:36.725Z,2.97
2022-12-07T08:25:49.039Z,3.02
2022-12-07T08:30:01.653Z,3.01
2022-12-07T08:34:15.303Z,3.28
2022-12-07T08:38:31.663Z,3.24
2022-12-07T08:42:46.308Z,3.26
2022-12-07T08:47:04.555Z,3.29
2022-12-07T08:51:16.886Z,3.44
2022-12-07T08:55:30.881Z,3.64
2022-12-07T08:59:43.179Z,3.60
2022-12-07T09:03:55.502Z,3.62
2022-12-07T09:08:08.881Z,3.84
2022-12-07T09:12:21.234Z,3.95
2022-12-07T09:16:33.698Z,3.86
2022-12-07T09:20:46.076Z,4.17
2022-12-07T09:25:01.913Z,4.30
2022-12-07T09:29:14.230Z,4.39
2022-12-07T09:33:26.829Z,4.64
2022-12-07T09:37:39.174Z,4.27
2022-12-07T09:41:51.774Z,4.06
2022-12-07T09:46:05.211Z,4.33
2022-12-07T09:50:26.609Z,4.63
2022-12-07T09:54:44.806Z,4.33
2022-12-07T09:59:04.490Z,4.59
2022-12-07T10:03:16.762Z,4.16
2022-12-07T10:07:29.025Z,4.59
2022-12-07T10:12:03.267Z,4.45
2022-12-07T10:16:39.051Z,4.49
2022-12-07T10:20:51.385Z,4.43
2022-12-07T10:25:19.819Z,4.43
2022-12-07T10:29:40.583Z,4.71
2022-12-07T10:33:55.937Z,4.66
2022-12-07T10:38:18.812Z,4.64
2022-12-07T10:42:33.251Z,4.72
2022-12-07T10:47:00.871Z,4.87
2022-12-07T10:51:39.557Z,4.85
2022-12-07T10:56:31.250Z,4.63
2022-12-07T11:00:58.927Z,4.47
2022-12-07T11:05:32.707Z,4.23
2022-12-07T11:10:09.369Z,4.39
2022-12-07T11:14:33.331Z,4.55
2022-12-07T11:19:01.212Z,4.60
2022-12-07T11:23:53.409Z,4.97
2022-12-07T11:28:23.778Z,5.14
2022-12-07T11:32:54.946Z,4.87
2022-12-07T11:37:14.558Z,5.04
2022-12-07T11:41:33.216Z,5.30
2022-12-07T11:45:52.240Z,5.31
2022-12-07T11:50:23.414Z,4.95
2022-12-07T11:54:48.049Z,5.24
2022-12-07T11:59:17.912Z,5.54
2022-12-07T12:03:37.549Z,5.89
2022-12-07T12:18:06.958Z,5.78
2022-12-07T12:22:22.027Z,5.46
2022-12-07T12:26:38.275Z,5.29
2022-12-07T12:31:21.331Z,5.18
2022-12-07T12:35:38.975Z,5.21
2022-12-07T12:40:16.119Z,5.91
2022-12-07T12:44:31.210Z,5.63
2022-12-07T12:48:44.139Z,6.06
2022-12-07T12:53:03.771Z,5.44
2022-12-07T12:57:28.399Z,5.88
2022-12-07T13:01:43.761Z,5.92
2022-12-07T13:06:26.888Z,5.22
2022-12-07T13:10:44.999Z,5.46
2022-12-07T13:15:01.045Z,5.23
2022-12-07T13:19:56.082Z,5.09
2022-12-07T13:24:14.158Z,4.90
2022-12-07T13:28:35.160Z,5.10
2022-12-07T13:32:56.937Z,4.75
2022-12-07T13:37:38.553Z,4.76
2022-12-07T13:42:01.881Z,4.82
2022-12-07T13:46:18.936Z,4.87
2022-12-07T13:50:33.538Z,4.86
2022-12-07T13:54:51.838Z,4.79
2022-12-07T13:59:06.976Z,5.02
2022-12-07T14:03:19.218Z,5.09
2022-12-07T14:07:31.534Z,5.05
2022-12-07T14:11:44.267Z,5.04
2022-12-07T14:15:56.951Z,4.99
2022-12-07T14:20:35.401Z,5.03
2022-12-07T14:24:47.713Z,4.83
2022-12-07T14:29:23.374Z,4.89
2022-12-07T14:33:35.759Z,4.86
2022-12-07T14:37:58.567Z,4.62
2022-12-07T14:42:11.238Z,4.50
2022-12-07T14:46:23.579Z,4.21
2022-12-07T14:55:27.991Z,4.06
2022-12-07T14:59:44.801Z,3.87
2022-12-07T15:03:57.670Z,3.79
2022-12-07T15:08:14.414Z,3.72
2022-12-07T15:12:26.770Z,3.66
2022-12-07T15:17:07.497Z,3.69
2022-12-07T15:21:18.103Z,3.61
2022-12-07T15:25:30.392Z,3.50
2022-12-07T15:29:42.755Z,3.51
2022-12-07T15:33:55.133Z,3.63
2022-12-07T15:38:07.434Z,3.51
2022-12-07T15:42:19.781Z,3.44
2022-12-07T15:46:33.923Z,3.51
2022-12-07T15:50:46.244Z,3.47
2022-12-07T15:54:58.623Z,3.48
2022-12-07T15:59:10.907Z,3.43
2022-12-07T16:03:23.257Z,3.66
2022-12-07T16:07:35.640Z,3.61
2022-12-07T16:11:48.205Z,3.61
2022-12-07T16:16:09.110Z,3.66
2022-12-07T16:20:21.688Z,3.65
2022-12-07T16:24:34.425Z,3.63
2022-12-07T16:28:49.928Z,3.58
2022-12-07T16:33:02.725Z,3.59
2022-12-07T16:37:15.254Z,3.52
2022-12-07T16:41:38.279Z,3.44
2022-12-07T16:45:51.538Z,3.56
2022-12-07T16:50:04.045Z,3.17
2022-12-07T16:54:16.395Z,3.00
2022-12-07T16:58:38.755Z,3.12
2022-12-07T17:02:53.145Z,3.12
2022-12-07T17:07:05.432Z,3.22
2022-12-07T17:11:29.778Z,3.30
2022-12-07T17:15:44.503Z,3.38
2022-12-07T17:19:59.379Z,3.34
2022-12-07T17:24:13.992Z,3.27
2022-12-07T17:28:26.299Z,3.18
2022-12-07T17:32:38.649Z,3.07
2022-12-07T17:36:50.906Z,2.89
2022-12-07T17:41:13.555Z,2.75
2022-12-07T17:45:25.995Z,2.57
2022-12-07T17:49:38.284Z,2.47
2022-12-07T17:53:52.352Z,2.34
2022-12-07T17:58:05.116Z,2.24
2022-12-07T18:02:17.548Z,2.21
2022-12-07T18:06:29.824Z,2.19
2022-12-07T18:10:42.110Z,2.18
2022-12-07T18:14:55.729Z,2.20
2022-12-07T18:19:09.875Z,2.22
2022-12-07T18:23:22.475Z,2.31
2022-12-07T18:27:34.774Z,2.32
2022-12-07T18:31:48.293Z,2.39
2022-12-07T18:36:01.765Z,2.42
2022-12-07T18:40:23.715Z,2.46
2022-12-07T18:44:45.989Z,2.51
2022-12-07T18:48:58.267Z,2.47
2022-12-07T18:53:11.608Z,2.54
2022-12-07T18:57:23.982Z,2.49
2022-12-07T19:01:37.210Z,2.47
2022-12-07T19:05:49.650Z,2.54
2022-12-07T19:10:01.944Z,2.50
2022-12-07T19:14:15.329Z,2.60
2022-12-07T19:18:27.585Z,2.63
2022-12-07T19:22:39.952Z,2.50
2022-12-07T19:26:59.507Z,2.39
2022-12-07T19:31:12.862Z,2.46
2022-12-07T19:35:25.131Z,2.18
2022-12-07T19:39:37.539Z,1.96
2022-12-07T19:43:49.792Z,1.78
2022-12-07T19:48:02.109Z,1.68
2022-12-07T19:52:15.051Z,1.62
2022-12-07T19:56:29.317Z,1.49
2022-12-07T20:00:41.578Z,1.45
2022-12-07T20:04:53.932Z,1.52
2022-12-07T20:09:06.593Z,1.41
2022-12-07T20:13:32.957Z,1.36
2022-12-07T20:17:45.260Z,1.31
2022-12-07T20:21:57.632Z,1.35
2022-12-07T20:26:12.775Z,1.48
2022-12-07T20:30:25.120Z,1.41
2022-12-07T20:34:37.395Z,1.44
2022-12-07T20:38:49.691Z,1.47
2022-12-07T20:43:11.963Z,1.45
2022-12-07T20:47:24.220Z,1.47
2022-12-07T20:51:36.530Z,1.51
2022-12-07T20:55:48.896Z,1.51
2022-12-07T21:00:08.470Z,1.78
2022-12-07T21:04:30.726Z,1.76
2022-12-07T21:08:48.132Z,1.78
2022-12-07T21:13:00.480Z,1.72
2022-12-07T21:17:13.063Z,1.79
2022-12-07T21:21:25.692Z,1.66
2022-12-07T21:25:42.925Z,1.54
2022-12-07T21:29:56.105Z,1.47
2022-12-07T21:34:08.739Z,1.57
2022-12-07T21:38:21.008Z,1.61
2022-12-07T21:42:33.322Z,1.61
2022-12-07T21:46:45.793Z,1.67
2022-12-07T21:51:05.021Z,1.71
2022-12-07T21:55:17.319Z,1.70
2022-12-07T21:59:29.712Z,1.74
2022-12-07T22:03:41.990Z,1.68
2022-12-07T22:07:54.373Z,1.65
2022-12-07T22:12:07.091Z,1.70
2022-12-07T22:16:20.755Z,1.70
2022-12-07T22:20:33.068Z,1.82
2022-12-07T22:24:45.367Z,2.07
2022-12-07T22:28:57.653Z,1.74
2022-12-07T22:33:09.921Z,1.84
2022-12-07T22:37:22.216Z,1.93
2022-12-07T22:41:34.865Z,1.88
2022-12-07T22:45:57.368Z,1.93
2022-12-07T22:50:10.098Z,1.83
2022-12-07T22:54:22.411Z,1.77
2022-12-07T22:58:34.692Z,1.86
2022-12-07T23:02:47.000Z,1.90
2022-12-07T23:07:00.134Z,1.81
2022-12-07T23:11:38.275Z,1.89
2022-12-07T23:15:50.966Z,1.97
2022-12-07T23:20:05.936Z,1.95
2022-12-07T23:24:18.260Z,1.89
2022-12-07T23:28:30.591Z,1.86
2022-12-07T23:32:42.860Z,1.87
2022-12-07T23:36:55.241Z,1.92
2022-12-07T23:41:19.759Z,1.98
2022-12-07T23:45:32.028Z,1.95
2022-12-07T23:49:44.306Z,1.99
2022-12-07T23:53:58.404Z,2.09
2022-12-07T23:58:10.674Z,2.02
